sensor_id;sensor_type;location;lat;lon;timestamp;P1;durP1;ratioP1;P2;durP2;ratioP2
68319;SDS011;55168;51.120;17.024;2024-02-21T00:00:00;13.9;;;6.2;;
68319;SDS011;55168;51.120;17.024;2024-02-21T00:01:00;14.9;;;6.4;;
68319;SDS011;55168;51.120;17.024;2024-02-21T00:02:00;14.9;;;6.4;;
68319;SDS011;55168;51.120;17.024;2024-02-21T00:03:00;14.9;;;6.4;;
68319;SDS011;55168;51.120;17.024;2024-02-21T00:04:00;14.9;;;6.4;;
68319;SDS011;55168;51.120;17.024;2024-02-21T00:05:00;14.9;;;6.4;;
68319;SDS011;55168;51.120;17.024;2024-02-21T00:06:00;16.0;;;6.5;;
68319;SDS011;55168;51.120;17.024;2024-02-21T00:07:00;16.0;;;6.5;;
68319;SDS011;55168;51.120;17.024;2024-02-21T00:08:00;16.0;;;6.5;;
68319;SDS011;55168;51.120;17.024;2024-02-21T00:09:00;16.0;;;6.5;;
68319;SDS011;55168;51.120;17.024;2024-02-21T00:10:00;16.0;;;6.5;;
68319;SDS011;55168;51.120;17.024;2024-02-21T00:11:00;15.3;;;6.1;;
68319;SDS011;55168;51.120;17.024;2024-02-21T00:12:00;15.3;;;6.1;;
68319;SDS011;55168;51.120;17.024;2024-02-21T00:13:00;15.3;;;6.1;;
68319;SDS011;55168;51.120;17.024;2024-02-21T00:14:00;15.3;;;6.1;;
68319;SDS011;55168;51.120;17.024;2024-02-21T00:15:00;15.3;;;6.1;;
68319;SDS011;55168;51.120;17.024;2024-02-21T00:16:00;17.2;;;6.3;;
68319;SDS011;55168;51.120;17.024;2024-02-21T00:17:00;17.2;;;6.3;;
68319;SDS011;55168;51.120;17.024;2024-02-21T00:18:00;17.2;;;6.3;;
68319;SDS011;55168;51.120;17.024;2024-02-21T00:19:00;17.2;;;6.3;;
68319;SDS011;55168;51.120;17.024;2024-02-21T00:20:00;17.2;;;6.3;;
68319;SDS011;55168;51.120;17.024;2024-02-21T00:21:00;14.7;;;6.0;;
68319;SDS011;55168;51.120;17.024;2024-02-21T00:22:00;14.7;;;6.0;;
68319;SDS011;55168;51.120;17.024;2024-02-21T00:23:00;14.7;;;6.0;;
68319;SDS011;55168;51.120;17.024;2024-02-21T00:24:00;14.7;;;6.0;;
68319;SDS011;55168;51.120;17.024;2024-02-21T00:25:00;14.7;;;6.0;;
68319;SDS011;55168;51.120;17.024;2024-02-21T00:26:00;14.5;;;5.7;;
68319;SDS011;55168;51.120;17.024;2024-02-21T00:27:00;14.5;;;5.7;;
68319;SDS011;55168;51.120;17.024;2024-02-21T00:28:00;14.5;;;5.7;;
68319;SDS011;55168;51.120;17.024;2024-02-21T00:29:00;14.5;;;5.7;;
68319;SDS011;55168;51.120;17.024;2024-02-21T00:30:00;14.5;;;5.7;;
68319;SDS011;55168;51.120;17.024;2024-02-21T00:31:00;13.7;;;6.2;;
68319;SDS011;55168;51.120;17.024;2024-02-21T00:32:00;13.7;;;6.2;;
68319;SDS011;55168;51.120;17.024;2024-02-21T00:33:00;13.7;;;6.2;;
68319;SDS011;55168;51.120;17.024;2024-02-21T00:34:00;13.7;;;6.2;;
68319;SDS011;55168;51.120;17.024;2024-02-21T00:35:00;13.7;;;6.2;;
68319;SDS011;55168;51.120;17.024;2024-02-21T00:36:00;12.3;;;5.9;;
68319;SDS011;55168;51.120;17.024;2024-02-21T00:37:00;12.3;;;5.9;;
68319;SDS011;55168;51.120;17.024;2024-02-21T00:38:00;12.3;;;5.9;;
68319;SDS011;55168;51.120;17.024;2024-02-21T00:39:00;12.3;;;5.9;;
68319;SDS011;55168;51.120;17.024;2024-02-21T00:40:00;12.3;;;5.9;;
68319;SDS011;55168;51.120;17.024;2024-02-21T00:41:00;17.3;;;7.0;;
68319;SDS011;55168;51.120;17.024;2024-02-21T00:42:00;17.3;;;7.0;;
68319;SDS011;55168;51.120;17.024;2024-02-21T00:43:00;17.3;;;7.0;;
68319;SDS011;55168;51.120;17.024;2024-02-21T00:44:00;17.3;;;7.0;;
68319;SDS011;55168;51.120;17.024;2024-02-21T00:45:00;17.3;;;7.0;;
68319;SDS011;55168;51.120;17.024;2024-02-21T00:46:00;15.5;;;6.5;;
68319;SDS011;55168;51.120;17.024;2024-02-21T00:47:00;15.5;;;6.5;;
68319;SDS011;55168;51.120;17.024;2024-02-21T00:48:00;15.5;;;6.5;;
68319;SDS011;55168;51.120;17.024;2024-02-21T00:49:00;15.5;;;6.5;;
68319;SDS011;55168;51.120;17.024;2024-02-21T00:50:00;15.5;;;6.5;;
68319;SDS011;55168;51.120;17.024;2024-02-21T00:51:00;13.7;;;6.6;;
68319;SDS011;55168;51.120;17.024;2024-02-21T00:52:00;13.7;;;6.6;;
68319;SDS011;55168;51.120;17.024;2024-02-21T00:53:00;13.7;;;6.6;;
68319;SDS011;55168;51.120;17.024;2024-02-21T00:54:00;13.7;;;6.6;;
68319;SDS011;55168;51.120;17.024;2024-02-21T00:55:00;13.7;;;6.6;;
68319;SDS011;55168;51.120;17.024;2024-02-21T00:56:00;11.8;;;6.4;;
68319;SDS011;55168;51.120;17.024;2024-02-21T00:57:00;11.8;;;6.4;;
68319;SDS011;55168;51.120;17.024;2024-02-21T00:58:00;11.8;;;6.4;;
68319;SDS011;55168;51.120;17.024;2024-02-21T00:59:00;11.8;;;6.4;;
68319;SDS011;55168;51.120;17.024;2024-02-21T01:00:00;11.8;;;6.4;;
68319;SDS011;55168;51.120;17.024;2024-02-21T01:01:00;15.6;;;6.7;;
68319;SDS011;55168;51.120;17.024;2024-02-21T01:02:00;15.6;;;6.7;;
68319;SDS011;55168;51.120;17.024;2024-02-21T01:03:00;15.6;;;6.7;;
68319;SDS011;55168;51.120;17.024;2024-02-21T01:04:00;15.6;;;6.7;;
68319;SDS011;55168;51.120;17.024;2024-02-21T01:05:00;15.6;;;6.7;;
68319;SDS011;55168;51.120;17.024;2024-02-21T01:06:00;14.3;;;6.1;;
68319;SDS011;55168;51.120;17.024;2024-02-21T01:07:00;14.3;;;6.1;;
68319;SDS011;55168;51.120;17.024;2024-02-21T01:08:00;14.3;;;6.1;;
68319;SDS011;55168;51.120;17.024;2024-02-21T01:09:00;14.3;;;6.1;;
68319;SDS011;55168;51.120;17.024;2024-02-21T01:10:00;14.3;;;6.1;;
68319;SDS011;55168;51.120;17.024;2024-02-21T01:11:00;13.0;;;6.8;;
68319;SDS011;55168;51.120;17.024;2024-02-21T01:12:00;13.0;;;6.8;;
68319;SDS011;55168;51.120;17.024;2024-02-21T01:13:00;13.0;;;6.8;;
68319;SDS011;55168;51.120;17.024;2024-02-21T01:14:00;13.0;;;6.8;;
68319;SDS011;55168;51.120;17.024;2024-02-21T01:15:00;13.0;;;6.8;;
68319;SDS011;55168;51.120;17.024;2024-02-21T01:16:00;14.4;;;6.3;;
68319;SDS011;55168;51.120;17.024;2024-02-21T01:17:00;14.4;;;6.3;;
68319;SDS011;55168;51.120;17.024;2024-02-21T01:18:00;14.4;;;6.3;;
68319;SDS011;55168;51.120;17.024;2024-02-21T01:19:00;14.4;;;6.3;;
68319;SDS011;55168;51.120;17.024;2024-02-21T01:20:00;14.4;;;6.3;;
68319;SDS011;55168;51.120;17.024;2024-02-21T01:21:00;14.4;;;6.4;;
68319;SDS011;55168;51.120;17.024;2024-02-21T01:22:00;14.4;;;6.4;;
68319;SDS011;55168;51.120;17.024;2024-02-21T01:23:00;14.4;;;6.4;;
68319;SDS011;55168;51.120;17.024;2024-02-21T01:24:00;14.4;;;6.4;;
68319;SDS011;55168;51.120;17.024;2024-02-21T01:25:00;14.4;;;6.4;;
68319;SDS011;55168;51.120;17.024;2024-02-21T01:26:00;12.8;;;6.1;;
68319;SDS011;55168;51.120;17.024;2024-02-21T01:27:00;12.8;;;6.1;;
68319;SDS011;55168;51.120;17.024;2024-02-21T01:28:00;12.8;;;6.1;;
68319;SDS011;55168;51.120;17.024;2024-02-21T01:29:00;12.8;;;6.1;;
68319;SDS011;55168;51.120;17.024;2024-02-21T01:30:00;12.8;;;6.1;;
68319;SDS011;55168;51.120;17.024;2024-02-21T01:31:00;17.9;;;6.6;;
68319;SDS011;55168;51.120;17.024;2024-02-21T01:32:00;17.9;;;6.6;;
68319;SDS011;55168;51.120;17.024;2024-02-21T01:33:00;17.9;;;6.6;;
68319;SDS011;55168;51.120;17.024;2024-02-21T01:34:00;17.9;;;6.6;;
68319;SDS011;55168;51.120;17.024;2024-02-21T01:35:00;17.9;;;6.6;;
68319;SDS011;55168;51.120;17.024;2024-02-21T01:36:01;13.9;;;6.4;;
68319;SDS011;55168;51.120;17.024;2024-02-21T01:37:00;13.9;;;6.4;;
68319;SDS011;55168;51.120;17.024;2024-02-21T01:38:00;13.9;;;6.4;;
68319;SDS011;55168;51.120;17.024;2024-02-21T01:39:00;13.9;;;6.4;;
68319;SDS011;55168;51.120;17.024;2024-02-21T01:40:00;13.9;;;6.4;;
68319;SDS011;55168;51.120;17.024;2024-02-21T01:41:00;13.4;;;6.2;;
68319;SDS011;55168;51.120;17.024;2024-02-21T01:42:00;13.4;;;6.2;;
68319;SDS011;55168;51.120;17.024;2024-02-21T01:43:00;13.4;;;6.2;;
68319;SDS011;55168;51.120;17.024;2024-02-21T01:44:00;13.4;;;6.2;;
68319;SDS011;55168;51.120;17.024;2024-02-21T01:45:00;13.4;;;6.2;;
68319;SDS011;55168;51.120;17.024;2024-02-21T01:46:00;18.6;;;7.2;;
68319;SDS011;55168;51.120;17.024;2024-02-21T01:47:00;18.6;;;7.2;;
68319;SDS011;55168;51.120;17.024;2024-02-21T01:48:00;18.6;;;7.2;;
68319;SDS011;55168;51.120;17.024;2024-02-21T01:49:00;18.6;;;7.2;;
68319;SDS011;55168;51.120;17.024;2024-02-21T01:50:01;18.6;;;7.2;;
68319;SDS011;55168;51.120;17.024;2024-02-21T01:51:01;13.7;;;6.3;;
68319;SDS011;55168;51.120;17.024;2024-02-21T01:52:01;13.7;;;6.3;;
68319;SDS011;55168;51.120;17.024;2024-02-21T01:53:00;13.7;;;6.3;;
68319;SDS011;55168;51.120;17.024;2024-02-21T01:54:00;13.7;;;6.3;;
68319;SDS011;55168;51.120;17.024;2024-02-21T01:55:00;13.7;;;6.3;;
68319;SDS011;55168;51.120;17.024;2024-02-21T01:56:00;16.0;;;6.1;;
68319;SDS011;55168;51.120;17.024;2024-02-21T01:57:00;16.0;;;6.1;;
68319;SDS011;55168;51.120;17.024;2024-02-21T01:58:00;16.0;;;6.1;;
68319;SDS011;55168;51.120;17.024;2024-02-21T01:59:00;16.0;;;6.1;;
68319;SDS011;55168;51.120;17.024;2024-02-21T02:00:00;16.0;;;6.1;;
68319;SDS011;55168;51.120;17.024;2024-02-21T02:01:00;14.3;;;6.5;;
68319;SDS011;55168;51.120;17.024;2024-02-21T02:02:00;14.3;;;6.5;;
68319;SDS011;55168;51.120;17.024;2024-02-21T02:03:00;14.3;;;6.5;;
68319;SDS011;55168;51.120;17.024;2024-02-21T02:04:00;14.3;;;6.5;;
68319;SDS011;55168;51.120;17.024;2024-02-21T02:05:00;14.3;;;6.5;;
68319;SDS011;55168;51.120;17.024;2024-02-21T02:06:00;13.8;;;6.6;;
68319;SDS011;55168;51.120;17.024;2024-02-21T02:07:02;13.8;;;6.6;;
68319;SDS011;55168;51.120;17.024;2024-02-21T02:08:00;13.8;;;6.6;;
68319;SDS011;55168;51.120;17.024;2024-02-21T02:09:00;13.8;;;6.6;;
68319;SDS011;55168;51.120;17.024;2024-02-21T02:10:00;13.8;;;6.6;;
68319;SDS011;55168;51.120;17.024;2024-02-21T02:11:00;15.9;;;6.7;;
68319;SDS011;55168;51.120;17.024;2024-02-21T02:12:01;15.9;;;6.7;;
68319;SDS011;55168;51.120;17.024;2024-02-21T02:13:00;15.9;;;6.7;;
68319;SDS011;55168;51.120;17.024;2024-02-21T02:14:00;15.9;;;6.7;;
68319;SDS011;55168;51.120;17.024;2024-02-21T02:15:01;15.9;;;6.7;;
68319;SDS011;55168;51.120;17.024;2024-02-21T02:16:00;17.6;;;7.0;;
68319;SDS011;55168;51.120;17.024;2024-02-21T02:17:00;17.6;;;7.0;;
68319;SDS011;55168;51.120;17.024;2024-02-21T02:18:00;17.6;;;7.0;;
68319;SDS011;55168;51.120;17.024;2024-02-21T02:19:00;17.6;;;7.0;;
68319;SDS011;55168;51.120;17.024;2024-02-21T02:20:00;17.6;;;7.0;;
68319;SDS011;55168;51.120;17.024;2024-02-21T02:21:00;18.6;;;7.4;;
68319;SDS011;55168;51.120;17.024;2024-02-21T02:22:09;18.6;;;7.4;;
68319;SDS011;55168;51.120;17.024;2024-02-21T02:24:00;18.6;;;7.4;;
68319;SDS011;55168;51.120;17.024;2024-02-21T02:25:00;18.6;;;7.4;;
68319;SDS011;55168;51.120;17.024;2024-02-21T02:26:00;15.9;;;6.7;;
68319;SDS011;55168;51.120;17.024;2024-02-21T02:27:00;15.9;;;6.7;;
68319;SDS011;55168;51.120;17.024;2024-02-21T02:28:00;15.9;;;6.7;;
68319;SDS011;55168;51.120;17.024;2024-02-21T02:29:01;15.9;;;6.7;;
68319;SDS011;55168;51.120;17.024;2024-02-21T02:30:00;15.9;;;6.7;;
68319;SDS011;55168;51.120;17.024;2024-02-21T02:31:00;13.1;;;6.5;;
68319;SDS011;55168;51.120;17.024;2024-02-21T02:32:00;13.1;;;6.5;;
68319;SDS011;55168;51.120;17.024;2024-02-21T02:33:00;13.1;;;6.5;;
68319;SDS011;55168;51.120;17.024;2024-02-21T02:34:00;13.1;;;6.5;;
68319;SDS011;55168;51.120;17.024;2024-02-21T02:35:00;13.1;;;6.5;;
68319;SDS011;55168;51.120;17.024;2024-02-21T02:36:00;14.0;;;7.0;;
68319;SDS011;55168;51.120;17.024;2024-02-21T02:37:00;14.0;;;7.0;;
68319;SDS011;55168;51.120;17.024;2024-02-21T02:38:00;14.0;;;7.0;;
68319;SDS011;55168;51.120;17.024;2024-02-21T02:39:00;14.0;;;7.0;;
68319;SDS011;55168;51.120;17.024;2024-02-21T02:40:00;14.0;;;7.0;;
68319;SDS011;55168;51.120;17.024;2024-02-21T02:41:00;16.1;;;7.1;;
68319;SDS011;55168;51.120;17.024;2024-02-21T02:42:00;16.1;;;7.1;;
68319;SDS011;55168;51.120;17.024;2024-02-21T02:43:00;16.1;;;7.1;;
68319;SDS011;55168;51.120;17.024;2024-02-21T02:44:00;16.1;;;7.1;;
68319;SDS011;55168;51.120;17.024;2024-02-21T02:45:00;16.1;;;7.1;;
68319;SDS011;55168;51.120;17.024;2024-02-21T02:46:00;16.1;;;6.9;;
68319;SDS011;55168;51.120;17.024;2024-02-21T02:47:00;16.1;;;6.9;;
68319;SDS011;55168;51.120;17.024;2024-02-21T02:48:00;16.1;;;6.9;;
68319;SDS011;55168;51.120;17.024;2024-02-21T02:49:00;16.1;;;6.9;;
68319;SDS011;55168;51.120;17.024;2024-02-21T02:50:00;16.1;;;6.9;;
68319;SDS011;55168;51.120;17.024;2024-02-21T02:51:00;13.6;;;6.6;;
68319;SDS011;55168;51.120;17.024;2024-02-21T02:52:00;13.6;;;6.6;;
68319;SDS011;55168;51.120;17.024;2024-02-21T02:53:00;13.6;;;6.6;;
68319;SDS011;55168;51.120;17.024;2024-02-21T02:54:01;13.6;;;6.6;;
68319;SDS011;55168;51.120;17.024;2024-02-21T02:55:00;13.6;;;6.6;;
68319;SDS011;55168;51.120;17.024;2024-02-21T02:56:00;11.6;;;7.1;;
68319;SDS011;55168;51.120;17.024;2024-02-21T02:57:00;11.6;;;7.1;;
68319;SDS011;55168;51.120;17.024;2024-02-21T02:58:00;11.6;;;7.1;;
68319;SDS011;55168;51.120;17.024;2024-02-21T02:59:00;11.6;;;7.1;;
68319;SDS011;55168;51.120;17.024;2024-02-21T03:00:00;11.6;;;7.1;;
68319;SDS011;55168;51.120;17.024;2024-02-21T03:01:00;12.5;;;6.6;;
68319;SDS011;55168;51.120;17.024;2024-02-21T03:02:00;12.5;;;6.6;;
68319;SDS011;55168;51.120;17.024;2024-02-21T03:03:00;12.5;;;6.6;;
68319;SDS011;55168;51.120;17.024;2024-02-21T03:04:00;12.5;;;6.6;;
68319;SDS011;55168;51.120;17.024;2024-02-21T03:05:00;12.5;;;6.6;;
68319;SDS011;55168;51.120;17.024;2024-02-21T03:06:00;15.2;;;7.5;;
68319;SDS011;55168;51.120;17.024;2024-02-21T03:07:00;15.2;;;7.5;;
68319;SDS011;55168;51.120;17.024;2024-02-21T03:08:00;15.2;;;7.5;;
68319;SDS011;55168;51.120;17.024;2024-02-21T03:09:00;15.2;;;7.5;;
68319;SDS011;55168;51.120;17.024;2024-02-21T03:10:00;15.2;;;7.5;;
68319;SDS011;55168;51.120;17.024;2024-02-21T03:11:00;17.1;;;7.6;;
68319;SDS011;55168;51.120;17.024;2024-02-21T03:12:00;17.1;;;7.6;;
68319;SDS011;55168;51.120;17.024;2024-02-21T03:13:00;17.1;;;7.6;;
68319;SDS011;55168;51.120;17.024;2024-02-21T03:14:00;17.1;;;7.6;;
68319;SDS011;55168;51.120;17.024;2024-02-21T03:15:00;17.1;;;7.6;;
68319;SDS011;55168;51.120;17.024;2024-02-21T03:16:00;17.0;;;7.7;;
68319;SDS011;55168;51.120;17.024;2024-02-21T03:17:00;17.0;;;7.7;;
68319;SDS011;55168;51.120;17.024;2024-02-21T03:18:00;17.0;;;7.7;;
68319;SDS011;55168;51.120;17.024;2024-02-21T03:19:00;17.0;;;7.7;;
68319;SDS011;55168;51.120;17.024;2024-02-21T03:20:01;17.0;;;7.7;;
68319;SDS011;55168;51.120;17.024;2024-02-21T03:21:00;12.5;;;7.7;;
68319;SDS011;55168;51.120;17.024;2024-02-21T03:22:00;12.5;;;7.7;;
68319;SDS011;55168;51.120;17.024;2024-02-21T03:23:00;12.5;;;7.7;;
68319;SDS011;55168;51.120;17.024;2024-02-21T03:24:00;12.5;;;7.7;;
68319;SDS011;55168;51.120;17.024;2024-02-21T03:25:00;12.5;;;7.7;;
68319;SDS011;55168;51.120;17.024;2024-02-21T03:26:00;14.0;;;7.2;;
68319;SDS011;55168;51.120;17.024;2024-02-21T03:27:00;14.0;;;7.2;;
68319;SDS011;55168;51.120;17.024;2024-02-21T03:28:00;14.0;;;7.2;;
68319;SDS011;55168;51.120;17.024;2024-02-21T03:29:00;14.0;;;7.2;;
68319;SDS011;55168;51.120;17.024;2024-02-21T03:30:00;14.0;;;7.2;;
68319;SDS011;55168;51.120;17.024;2024-02-21T03:31:00;16.8;;;7.9;;
68319;SDS011;55168;51.120;17.024;2024-02-21T03:32:00;16.8;;;7.9;;
68319;SDS011;55168;51.120;17.024;2024-02-21T03:33:00;16.8;;;7.9;;
68319;SDS011;55168;51.120;17.024;2024-02-21T03:34:00;16.8;;;7.9;;
68319;SDS011;55168;51.120;17.024;2024-02-21T03:35:00;16.8;;;7.9;;
68319;SDS011;55168;51.120;17.024;2024-02-21T03:36:00;14.2;;;7.7;;
68319;SDS011;55168;51.120;17.024;2024-02-21T03:37:00;14.2;;;7.7;;
68319;SDS011;55168;51.120;17.024;2024-02-21T03:38:00;14.2;;;7.7;;
68319;SDS011;55168;51.120;17.024;2024-02-21T03:39:00;14.2;;;7.7;;
68319;SDS011;55168;51.120;17.024;2024-02-21T03:40:00;14.2;;;7.7;;
68319;SDS011;55168;51.120;17.024;2024-02-21T03:41:00;14.4;;;7.8;;
68319;SDS011;55168;51.120;17.024;2024-02-21T03:42:00;14.4;;;7.8;;
68319;SDS011;55168;51.120;17.024;2024-02-21T03:43:00;14.4;;;7.8;;
68319;SDS011;55168;51.120;17.024;2024-02-21T03:44:00;14.4;;;7.8;;
68319;SDS011;55168;51.120;17.024;2024-02-21T03:45:00;14.4;;;7.8;;
68319;SDS011;55168;51.120;17.024;2024-02-21T03:46:00;14.6;;;7.8;;
68319;SDS011;55168;51.120;17.024;2024-02-21T03:47:00;14.6;;;7.8;;
68319;SDS011;55168;51.120;17.024;2024-02-21T03:48:00;14.6;;;7.8;;
68319;SDS011;55168;51.120;17.024;2024-02-21T03:49:00;14.6;;;7.8;;
68319;SDS011;55168;51.120;17.024;2024-02-21T03:50:00;14.6;;;7.8;;
68319;SDS011;55168;51.120;17.024;2024-02-21T03:51:00;10.9;;;7.2;;
68319;SDS011;55168;51.120;17.024;2024-02-21T03:52:00;10.9;;;7.2;;
68319;SDS011;55168;51.120;17.024;2024-02-21T03:53:00;10.9;;;7.2;;
68319;SDS011;55168;51.120;17.024;2024-02-21T03:54:00;10.9;;;7.2;;
68319;SDS011;55168;51.120;17.024;2024-02-21T03:55:00;10.9;;;7.2;;
68319;SDS011;55168;51.120;17.024;2024-02-21T03:56:01;14.9;;;7.9;;
68319;SDS011;55168;51.120;17.024;2024-02-21T03:57:00;14.9;;;7.9;;
68319;SDS011;55168;51.120;17.024;2024-02-21T03:58:00;14.9;;;7.9;;
68319;SDS011;55168;51.120;17.024;2024-02-21T03:59:00;14.9;;;7.9;;
68319;SDS011;55168;51.120;17.024;2024-02-21T04:00:00;14.9;;;7.9;;
68319;SDS011;55168;51.120;17.024;2024-02-21T04:01:00;14.2;;;8.1;;
68319;SDS011;55168;51.120;17.024;2024-02-21T04:02:00;14.2;;;8.1;;
68319;SDS011;55168;51.120;17.024;2024-02-21T04:03:00;14.2;;;8.1;;
68319;SDS011;55168;51.120;17.024;2024-02-21T04:04:00;14.2;;;8.1;;
68319;SDS011;55168;51.120;17.024;2024-02-21T04:05:00;14.2;;;8.1;;
68319;SDS011;55168;51.120;17.024;2024-02-21T04:06:00;13.1;;;7.7;;
68319;SDS011;55168;51.120;17.024;2024-02-21T04:07:00;13.1;;;7.7;;
68319;SDS011;55168;51.120;17.024;2024-02-21T04:08:02;13.1;;;7.7;;
68319;SDS011;55168;51.120;17.024;2024-02-21T04:09:00;13.1;;;7.7;;
68319;SDS011;55168;51.120;17.024;2024-02-21T04:10:00;13.1;;;7.7;;
68319;SDS011;55168;51.120;17.024;2024-02-21T04:11:00;15.6;;;8.2;;
68319;SDS011;55168;51.120;17.024;2024-02-21T04:12:00;15.6;;;8.2;;
68319;SDS011;55168;51.120;17.024;2024-02-21T04:13:00;15.6;;;8.2;;
68319;SDS011;55168;51.120;17.024;2024-02-21T04:14:00;15.6;;;8.2;;
68319;SDS011;55168;51.120;17.024;2024-02-21T04:15:00;15.6;;;8.2;;
68319;SDS011;55168;51.120;17.024;2024-02-21T04:16:00;15.1;;;7.7;;
68319;SDS011;55168;51.120;17.024;2024-02-21T04:17:00;15.1;;;7.7;;
68319;SDS011;55168;51.120;17.024;2024-02-21T04:18:00;15.1;;;7.7;;
68319;SDS011;55168;51.120;17.024;2024-02-21T04:19:00;15.1;;;7.7;;
68319;SDS011;55168;51.120;17.024;2024-02-21T04:20:03;15.1;;;7.7;;
68319;SDS011;55168;51.120;17.024;2024-02-21T04:21:00;12.9;;;8.3;;
68319;SDS011;55168;51.120;17.024;2024-02-21T04:22:00;12.9;;;8.3;;
68319;SDS011;55168;51.120;17.024;2024-02-21T04:23:00;12.9;;;8.3;;
68319;SDS011;55168;51.120;17.024;2024-02-21T04:24:00;12.9;;;8.3;;
68319;SDS011;55168;51.120;17.024;2024-02-21T04:25:00;12.9;;;8.3;;
68319;SDS011;55168;51.120;17.024;2024-02-21T04:26:00;16.1;;;8.2;;
68319;SDS011;55168;51.120;17.024;2024-02-21T04:27:00;16.1;;;8.2;;
68319;SDS011;55168;51.120;17.024;2024-02-21T04:28:00;16.1;;;8.2;;
68319;SDS011;55168;51.120;17.024;2024-02-21T04:29:00;16.1;;;8.2;;
68319;SDS011;55168;51.120;17.024;2024-02-21T04:30:00;16.1;;;8.2;;
68319;SDS011;55168;51.120;17.024;2024-02-21T04:31:00;15.6;;;7.8;;
68319;SDS011;55168;51.120;17.024;2024-02-21T04:32:01;15.6;;;7.8;;
68319;SDS011;55168;51.120;17.024;2024-02-21T04:33:00;15.6;;;7.8;;
68319;SDS011;55168;51.120;17.024;2024-02-21T04:34:00;15.6;;;7.8;;
68319;SDS011;55168;51.120;17.024;2024-02-21T04:35:00;15.6;;;7.8;;
68319;SDS011;55168;51.120;17.024;2024-02-21T04:36:00;18.3;;;7.8;;
68319;SDS011;55168;51.120;17.024;2024-02-21T04:37:00;18.3;;;7.8;;
68319;SDS011;55168;51.120;17.024;2024-02-21T04:38:00;18.3;;;7.8;;
68319;SDS011;55168;51.120;17.024;2024-02-21T04:39:00;18.3;;;7.8;;
68319;SDS011;55168;51.120;17.024;2024-02-21T04:40:00;18.3;;;7.8;;
68319;SDS011;55168;51.120;17.024;2024-02-21T04:41:00;14.4;;;8.4;;
68319;SDS011;55168;51.120;17.024;2024-02-21T04:42:00;14.4;;;8.4;;
68319;SDS011;55168;51.120;17.024;2024-02-21T04:43:00;14.4;;;8.4;;
68319;SDS011;55168;51.120;17.024;2024-02-21T04:44:00;14.4;;;8.4;;
68319;SDS011;55168;51.120;17.024;2024-02-21T04:45:00;14.4;;;8.4;;
68319;SDS011;55168;51.120;17.024;2024-02-21T04:46:00;15.7;;;8.1;;
68319;SDS011;55168;51.120;17.024;2024-02-21T04:47:00;15.7;;;8.1;;
68319;SDS011;55168;51.120;17.024;2024-02-21T04:48:00;15.7;;;8.1;;
68319;SDS011;55168;51.120;17.024;2024-02-21T04:49:00;15.7;;;8.1;;
68319;SDS011;55168;51.120;17.024;2024-02-21T04:50:00;15.7;;;8.1;;
68319;SDS011;55168;51.120;17.024;2024-02-21T04:51:00;13.4;;;8.0;;
68319;SDS011;55168;51.120;17.024;2024-02-21T04:52:00;13.4;;;8.0;;
68319;SDS011;55168;51.120;17.024;2024-02-21T04:53:00;13.4;;;8.0;;
68319;SDS011;55168;51.120;17.024;2024-02-21T04:54:00;13.4;;;8.0;;
68319;SDS011;55168;51.120;17.024;2024-02-21T04:55:00;13.4;;;8.0;;
68319;SDS011;55168;51.120;17.024;2024-02-21T04:56:00;14.5;;;8.3;;
68319;SDS011;55168;51.120;17.024;2024-02-21T04:57:00;14.5;;;8.3;;
68319;SDS011;55168;51.120;17.024;2024-02-21T04:58:00;14.5;;;8.3;;
68319;SDS011;55168;51.120;17.024;2024-02-21T04:59:00;14.5;;;8.3;;
68319;SDS011;55168;51.120;17.024;2024-02-21T05:00:00;14.5;;;8.3;;
68319;SDS011;55168;51.120;17.024;2024-02-21T05:01:00;14.3;;;8.2;;
68319;SDS011;55168;51.120;17.024;2024-02-21T05:02:00;14.3;;;8.2;;
68319;SDS011;55168;51.120;17.024;2024-02-21T05:03:00;14.3;;;8.2;;
68319;SDS011;55168;51.120;17.024;2024-02-21T05:04:00;14.3;;;8.2;;
68319;SDS011;55168;51.120;17.024;2024-02-21T05:05:00;14.3;;;8.2;;
68319;SDS011;55168;51.120;17.024;2024-02-21T05:06:00;11.8;;;8.0;;
68319;SDS011;55168;51.120;17.024;2024-02-21T05:07:00;11.8;;;8.0;;
68319;SDS011;55168;51.120;17.024;2024-02-21T05:08:00;11.8;;;8.0;;
68319;SDS011;55168;51.120;17.024;2024-02-21T05:09:00;11.8;;;8.0;;
68319;SDS011;55168;51.120;17.024;2024-02-21T05:10:00;11.8;;;8.0;;
68319;SDS011;55168;51.120;17.024;2024-02-21T05:11:00;13.6;;;7.9;;
68319;SDS011;55168;51.120;17.024;2024-02-21T05:12:00;13.6;;;7.9;;
68319;SDS011;55168;51.120;17.024;2024-02-21T05:13:00;13.6;;;7.9;;
68319;SDS011;55168;51.120;17.024;2024-02-21T05:14:00;13.6;;;7.9;;
68319;SDS011;55168;51.120;17.024;2024-02-21T05:15:00;13.6;;;7.9;;
68319;SDS011;55168;51.120;17.024;2024-02-21T05:16:00;12.4;;;7.2;;
68319;SDS011;55168;51.120;17.024;2024-02-21T05:17:00;12.4;;;7.2;;
68319;SDS011;55168;51.120;17.024;2024-02-21T05:18:00;12.4;;;7.2;;
68319;SDS011;55168;51.120;17.024;2024-02-21T05:19:00;12.4;;;7.2;;
68319;SDS011;55168;51.120;17.024;2024-02-21T05:20:00;12.4;;;7.2;;
68319;SDS011;55168;51.120;17.024;2024-02-21T05:21:01;13.5;;;7.0;;
68319;SDS011;55168;51.120;17.024;2024-02-21T05:22:00;13.5;;;7.0;;
68319;SDS011;55168;51.120;17.024;2024-02-21T05:23:00;13.5;;;7.0;;
68319;SDS011;55168;51.120;17.024;2024-02-21T05:24:00;13.5;;;7.0;;
68319;SDS011;55168;51.120;17.024;2024-02-21T05:25:00;13.5;;;7.0;;
68319;SDS011;55168;51.120;17.024;2024-02-21T05:26:00;12.0;;;7.1;;
68319;SDS011;55168;51.120;17.024;2024-02-21T05:27:00;12.0;;;7.1;;
68319;SDS011;55168;51.120;17.024;2024-02-21T05:28:00;12.0;;;7.1;;
68319;SDS011;55168;51.120;17.024;2024-02-21T05:29:00;12.0;;;7.1;;
68319;SDS011;55168;51.120;17.024;2024-02-21T05:30:00;12.0;;;7.1;;
68319;SDS011;55168;51.120;17.024;2024-02-21T05:31:00;10.4;;;7.2;;
68319;SDS011;55168;51.120;17.024;2024-02-21T05:32:00;10.4;;;7.2;;
68319;SDS011;55168;51.120;17.024;2024-02-21T05:33:04;10.4;;;7.2;;
68319;SDS011;55168;51.120;17.024;2024-02-21T05:34:00;10.4;;;7.2;;
68319;SDS011;55168;51.120;17.024;2024-02-21T05:35:00;10.4;;;7.2;;
68319;SDS011;55168;51.120;17.024;2024-02-21T05:36:00;13.7;;;7.7;;
68319;SDS011;55168;51.120;17.024;2024-02-21T05:37:00;13.7;;;7.7;;
68319;SDS011;55168;51.120;17.024;2024-02-21T05:38:00;13.7;;;7.7;;
68319;SDS011;55168;51.120;17.024;2024-02-21T05:39:00;13.7;;;7.7;;
68319;SDS011;55168;51.120;17.024;2024-02-21T05:40:00;13.7;;;7.7;;
68319;SDS011;55168;51.120;17.024;2024-02-21T05:41:00;12.1;;;7.7;;
68319;SDS011;55168;51.120;17.024;2024-02-21T05:42:00;12.1;;;7.7;;
68319;SDS011;55168;51.120;17.024;2024-02-21T05:43:00;12.1;;;7.7;;
68319;SDS011;55168;51.120;17.024;2024-02-21T05:44:00;12.1;;;7.7;;
68319;SDS011;55168;51.120;17.024;2024-02-21T05:45:00;12.1;;;7.7;;
68319;SDS011;55168;51.120;17.024;2024-02-21T05:46:00;12.5;;;7.7;;
68319;SDS011;55168;51.120;17.024;2024-02-21T05:47:00;12.5;;;7.7;;
68319;SDS011;55168;51.120;17.024;2024-02-21T05:48:00;12.5;;;7.7;;
68319;SDS011;55168;51.120;17.024;2024-02-21T05:49:00;12.5;;;7.7;;
68319;SDS011;55168;51.120;17.024;2024-02-21T05:50:00;12.5;;;7.7;;
68319;SDS011;55168;51.120;17.024;2024-02-21T05:51:01;10.8;;;6.8;;
68319;SDS011;55168;51.120;17.024;2024-02-21T05:52:00;10.8;;;6.8;;
68319;SDS011;55168;51.120;17.024;2024-02-21T05:53:00;10.8;;;6.8;;
68319;SDS011;55168;51.120;17.024;2024-02-21T05:54:00;10.8;;;6.8;;
68319;SDS011;55168;51.120;17.024;2024-02-21T05:55:00;10.8;;;6.8;;
68319;SDS011;55168;51.120;17.024;2024-02-21T05:56:00;15.2;;;7.9;;
68319;SDS011;55168;51.120;17.024;2024-02-21T05:57:00;15.2;;;7.9;;
68319;SDS011;55168;51.120;17.024;2024-02-21T05:58:00;15.2;;;7.9;;
68319;SDS011;55168;51.120;17.024;2024-02-21T05:59:00;15.2;;;7.9;;
68319;SDS011;55168;51.120;17.024;2024-02-21T06:00:00;15.2;;;7.9;;
68319;SDS011;55168;51.120;17.024;2024-02-21T06:01:00;11.3;;;7.4;;
68319;SDS011;55168;51.120;17.024;2024-02-21T06:02:00;11.3;;;7.4;;